This is the latest recevied weather packets stored in our database for station/object K7JGC-9. If no packets are shown the sender has not sent any weather packets the latest 10 day(s).
| Time | Temp. | Humidity | Pressure | Rain* | Wind** | Luminosity | Snow |
|---|---|---|---|---|---|---|---|
| 1777761945 | 20.56° C | 62% | 1012.9 hPa | 0 mm | - | 53 W/m² | - |
| 1777760144 | 21.11° C | 62% | 1013.5 hPa | 0 mm | - | 50 W/m² | - |
| 1777758343 | 21.11° C | 62% | 1013.9 hPa | 0 mm | - | 51 W/m² | - |
| 1777756538 | 20.56° C | 59% | 1014.2 hPa | 0 mm | - | 52 W/m² | - |
| 1777754738 | 19.44° C | 62% | 1015 hPa | 0 mm | - | 110 W/m² | - |
| 1777752937 | 18.33° C | 66% | 1015.3 hPa | 0 mm | - | 87 W/m² | - |
| 1777751136 | 17.78° C | 68% | 1015.5 hPa | 0 mm | - | 146 W/m² | - |
| 1777749334 | 16.67° C | 68% | 1016 hPa | 0 mm | - | 118 W/m² | - |
| 1777747531 | 16.67° C | 69% | 1016 hPa | 0 mm | - | 153 W/m² | - |
| 1777745727 | 15.56° C | 72% | 1016.3 hPa | 0 mm | - | 234 W/m² | - |
| 1777743925 | 13.89° C | 76% | 1016.8 hPa | 0 mm | - | 143 W/m² | - |
| 1777742123 | 13.33° C | 79% | 1016.9 hPa | 0 mm | - | 90 W/m² | - |
| 1777740321 | 13.33° C | 79% | 1016.7 hPa | 0 mm | - | 95 W/m² | - |
| 1777738517 | 12.78° C | 83% | 1016.8 hPa | 0 mm | - | 56 W/m² | - |
| 1777736716 | 11.67° C | 83% | 1017.1 hPa | 0 mm | - | 48 W/m² | - |
| 1777734907 | 11.67° C | 84% | 1017 hPa | 0 mm | - | 31 W/m² | - |
| 1777733105 | 11.11° C | 85% | 1016.9 hPa | 0 mm | - | 21 W/m² | - |
| 1777731305 | 11.11° C | 86% | 1017.1 hPa | 0 mm | - | 11 W/m² | - |
| 1777729504 | 11.11° C | 86% | 1016.9 hPa | 0 mm | - | 5 W/m² | - |
| 1777727703 | 11.11° C | 86% | 1016.7 hPa | 0 mm | - | 1 W/m² | - |
| 1777725902 | 10.56° C | 86% | 1016.9 hPa | 0 mm | - | 0 W/m² | - |
| 1777724102 | 10.56° C | 87% | 1016.5 hPa | 0 mm | - | 0 W/m² | - |
| 1777722300 | 10.56° C | 86% | 1016.7 hPa | 0 mm | - | 0 W/m² | - |
| 1777720496 | 10.56° C | 86% | 1016.5 hPa | 0 mm | - | 0 W/m² | - |
| 1777718693 | 10.56° C | 87% | 1016.8 hPa | 0 mm | - | 0 W/m² | - |
* Rain latest hour (hover to see other rain measurements)
** Current wind speed in m/s (hover to see current wind gust speed)